sensor_id;sensor_type;location;lat;lon;timestamp;P1;durP1;ratioP1;P2;durP2;ratioP2
1380;SDS011;684;48.342;10.096;2022-10-16T00:00:46;7.23;;;2.87;;
1380;SDS011;684;48.342;10.096;2022-10-16T00:03:13;5.97;;;3.00;;
1380;SDS011;684;48.342;10.096;2022-10-16T00:05:41;5.37;;;2.50;;
1380;SDS011;684;48.342;10.096;2022-10-16T00:08:10;5.73;;;2.40;;
1380;SDS011;684;48.342;10.096;2022-10-16T00:10:39;8.10;;;2.87;;
1380;SDS011;684;48.342;10.096;2022-10-16T00:13:06;5.53;;;2.90;;
1380;SDS011;684;48.342;10.096;2022-10-16T00:15:34;6.60;;;3.00;;
1380;SDS011;684;48.342;10.096;2022-10-16T00:18:02;4.97;;;2.83;;
1380;SDS011;684;48.342;10.096;2022-10-16T00:20:29;7.13;;;2.80;;
1380;SDS011;684;48.342;10.096;2022-10-16T00:22:58;7.63;;;3.20;;
1380;SDS011;684;48.342;10.096;2022-10-16T00:25:25;6.60;;;3.23;;
1380;SDS011;684;48.342;10.096;2022-10-16T00:27:53;6.00;;;3.37;;
1380;SDS011;684;48.342;10.096;2022-10-16T00:30:20;11.00;;;2.80;;
1380;SDS011;684;48.342;10.096;2022-10-16T00:32:47;5.03;;;2.77;;
1380;SDS011;684;48.342;10.096;2022-10-16T00:35:13;6.13;;;2.70;;
1380;SDS011;684;48.342;10.096;2022-10-16T00:37:40;6.30;;;2.93;;
1380;SDS011;684;48.342;10.096;2022-10-16T00:40:07;7.47;;;2.83;;
1380;SDS011;684;48.342;10.096;2022-10-16T00:42:35;6.53;;;2.87;;
1380;SDS011;684;48.342;10.096;2022-10-16T00:45:04;7.00;;;3.10;;
1380;SDS011;684;48.342;10.096;2022-10-16T00:47:32;10.07;;;3.33;;
1380;SDS011;684;48.342;10.096;2022-10-16T00:50:04;7.70;;;3.53;;
1380;SDS011;684;48.342;10.096;2022-10-16T00:52:33;6.17;;;2.80;;
1380;SDS011;684;48.342;10.096;2022-10-16T00:55:01;6.27;;;3.20;;
1380;SDS011;684;48.342;10.096;2022-10-16T00:57:29;6.33;;;2.77;;
1380;SDS011;684;48.342;10.096;2022-10-16T00:59:56;5.80;;;2.97;;
1380;SDS011;684;48.342;10.096;2022-10-16T01:02:25;9.00;;;2.80;;
1380;SDS011;684;48.342;10.096;2022-10-16T01:04:52;5.60;;;3.30;;
1380;SDS011;684;48.342;10.096;2022-10-16T01:07:24;6.60;;;3.00;;
1380;SDS011;684;48.342;10.096;2022-10-16T01:10:02;8.50;;;2.77;;
1380;SDS011;684;48.342;10.096;2022-10-16T01:12:40;6.37;;;3.33;;
1380;SDS011;684;48.342;10.096;2022-10-16T01:15:10;8.63;;;3.03;;
1380;SDS011;684;48.342;10.096;2022-10-16T01:17:47;6.97;;;3.40;;
1380;SDS011;684;48.342;10.096;2022-10-16T01:20:20;5.97;;;3.40;;
1380;SDS011;684;48.342;10.096;2022-10-16T01:23:05;7.20;;;2.90;;
1380;SDS011;684;48.342;10.096;2022-10-16T01:25:49;7.20;;;2.43;;
1380;SDS011;684;48.342;10.096;2022-10-16T01:28:27;6.23;;;3.43;;
1380;SDS011;684;48.342;10.096;2022-10-16T01:31:00;5.90;;;2.73;;
1380;SDS011;684;48.342;10.096;2022-10-16T01:33:30;9.80;;;3.47;;
1380;SDS011;684;48.342;10.096;2022-10-16T01:36:02;5.60;;;2.70;;
1380;SDS011;684;48.342;10.096;2022-10-16T01:38:34;10.20;;;3.30;;
1380;SDS011;684;48.342;10.096;2022-10-16T01:41:04;7.70;;;2.87;;
1380;SDS011;684;48.342;10.096;2022-10-16T01:43:36;6.83;;;3.30;;
1380;SDS011;684;48.342;10.096;2022-10-16T01:46:07;7.33;;;3.00;;
1380;SDS011;684;48.342;10.096;2022-10-16T01:48:35;6.60;;;3.27;;
1380;SDS011;684;48.342;10.096;2022-10-16T01:51:03;7.33;;;3.30;;
1380;SDS011;684;48.342;10.096;2022-10-16T01:53:32;7.57;;;3.40;;
1380;SDS011;684;48.342;10.096;2022-10-16T01:56:00;11.80;;;3.10;;
1380;SDS011;684;48.342;10.096;2022-10-16T01:58:30;5.50;;;3.23;;
1380;SDS011;684;48.342;10.096;2022-10-16T02:01:03;6.83;;;3.20;;
1380;SDS011;684;48.342;10.096;2022-10-16T02:03:34;9.50;;;3.33;;
1380;SDS011;684;48.342;10.096;2022-10-16T02:06:03;5.80;;;3.10;;
1380;SDS011;684;48.342;10.096;2022-10-16T02:08:30;8.50;;;3.53;;
1380;SDS011;684;48.342;10.096;2022-10-16T02:10:57;7.50;;;3.50;;
1380;SDS011;684;48.342;10.096;2022-10-16T02:13:28;8.27;;;3.57;;
1380;SDS011;684;48.342;10.096;2022-10-16T02:15:58;14.33;;;3.83;;
1380;SDS011;684;48.342;10.096;2022-10-16T02:18:26;7.67;;;3.40;;
1380;SDS011;684;48.342;10.096;2022-10-16T02:20:55;6.33;;;2.90;;
1380;SDS011;684;48.342;10.096;2022-10-16T02:23:27;5.77;;;3.43;;
1380;SDS011;684;48.342;10.096;2022-10-16T02:26:04;5.90;;;2.57;;
1380;SDS011;684;48.342;10.096;2022-10-16T02:28:36;6.90;;;2.83;;
1380;SDS011;684;48.342;10.096;2022-10-16T02:31:06;6.23;;;2.87;;
1380;SDS011;684;48.342;10.096;2022-10-16T02:33:38;6.17;;;2.83;;
1380;SDS011;684;48.342;10.096;2022-10-16T02:36:08;6.20;;;2.57;;
1380;SDS011;684;48.342;10.096;2022-10-16T02:38:35;5.60;;;3.07;;
1380;SDS011;684;48.342;10.096;2022-10-16T02:41:03;7.00;;;3.17;;
1380;SDS011;684;48.342;10.096;2022-10-16T02:43:31;8.90;;;2.80;;
1380;SDS011;684;48.342;10.096;2022-10-16T02:45:58;6.87;;;3.30;;
1380;SDS011;684;48.342;10.096;2022-10-16T02:48:25;6.47;;;3.03;;
1380;SDS011;684;48.342;10.096;2022-10-16T02:50:53;8.30;;;2.40;;
1380;SDS011;684;48.342;10.096;2022-10-16T02:53:20;7.80;;;2.80;;
1380;SDS011;684;48.342;10.096;2022-10-16T02:55:47;11.00;;;3.30;;
1380;SDS011;684;48.342;10.096;2022-10-16T02:58:13;6.13;;;2.43;;
1380;SDS011;684;48.342;10.096;2022-10-16T03:00:40;4.63;;;2.50;;
1380;SDS011;684;48.342;10.096;2022-10-16T03:03:07;5.57;;;2.40;;
1380;SDS011;684;48.342;10.096;2022-10-16T03:05:34;7.83;;;2.93;;
1380;SDS011;684;48.342;10.096;2022-10-16T03:08:02;6.30;;;2.47;;
1380;SDS011;684;48.342;10.096;2022-10-16T03:10:29;7.50;;;2.90;;
1380;SDS011;684;48.342;10.096;2022-10-16T03:12:55;5.70;;;3.17;;
1380;SDS011;684;48.342;10.096;2022-10-16T03:15:22;6.93;;;3.17;;
1380;SDS011;684;48.342;10.096;2022-10-16T03:17:49;7.00;;;3.00;;
1380;SDS011;684;48.342;10.096;2022-10-16T03:20:16;8.90;;;2.77;;
1380;SDS011;684;48.342;10.096;2022-10-16T03:22:42;5.63;;;2.70;;
1380;SDS011;684;48.342;10.096;2022-10-16T03:25:10;6.00;;;2.43;;
1380;SDS011;684;48.342;10.096;2022-10-16T03:27:37;7.00;;;2.90;;
1380;SDS011;684;48.342;10.096;2022-10-16T03:30:04;6.37;;;2.90;;
1380;SDS011;684;48.342;10.096;2022-10-16T03:32:32;7.80;;;3.53;;
1380;SDS011;684;48.342;10.096;2022-10-16T03:34:59;9.53;;;3.73;;
1380;SDS011;684;48.342;10.096;2022-10-16T03:37:25;6.40;;;2.53;;
1380;SDS011;684;48.342;10.096;2022-10-16T03:39:52;8.63;;;3.07;;
1380;SDS011;684;48.342;10.096;2022-10-16T03:42:21;6.70;;;3.00;;
1380;SDS011;684;48.342;10.096;2022-10-16T03:44:49;6.73;;;3.50;;
1380;SDS011;684;48.342;10.096;2022-10-16T03:47:16;6.20;;;3.13;;
1380;SDS011;684;48.342;10.096;2022-10-16T03:49:46;6.50;;;3.50;;
1380;SDS011;684;48.342;10.096;2022-10-16T03:52:13;6.20;;;2.87;;
1380;SDS011;684;48.342;10.096;2022-10-16T03:54:40;7.67;;;3.30;;
1380;SDS011;684;48.342;10.096;2022-10-16T03:57:07;7.47;;;2.87;;
1380;SDS011;684;48.342;10.096;2022-10-16T03:59:35;7.73;;;3.00;;
1380;SDS011;684;48.342;10.096;2022-10-16T04:02:01;10.10;;;3.17;;
1380;SDS011;684;48.342;10.096;2022-10-16T04:04:28;7.23;;;2.70;;
1380;SDS011;684;48.342;10.096;2022-10-16T04:06:55;6.23;;;2.70;;
1380;SDS011;684;48.342;10.096;2022-10-16T04:09:22;7.50;;;3.63;;
1380;SDS011;684;48.342;10.096;2022-10-16T04:11:48;6.47;;;3.20;;
1380;SDS011;684;48.342;10.096;2022-10-16T04:14:15;6.20;;;3.20;;
1380;SDS011;684;48.342;10.096;2022-10-16T04:16:43;5.27;;;2.87;;
1380;SDS011;684;48.342;10.096;2022-10-16T04:19:10;7.97;;;3.63;;
1380;SDS011;684;48.342;10.096;2022-10-16T04:21:38;10.60;;;3.43;;
1380;SDS011;684;48.342;10.096;2022-10-16T04:24:05;7.30;;;3.17;;
1380;SDS011;684;48.342;10.096;2022-10-16T04:26:32;9.23;;;2.70;;
1380;SDS011;684;48.342;10.096;2022-10-16T04:28:58;7.77;;;3.60;;
1380;SDS011;684;48.342;10.096;2022-10-16T04:31:25;7.30;;;2.37;;
1380;SDS011;684;48.342;10.096;2022-10-16T04:33:53;8.00;;;3.63;;
1380;SDS011;684;48.342;10.096;2022-10-16T04:36:20;9.80;;;3.37;;
1380;SDS011;684;48.342;10.096;2022-10-16T04:38:47;9.43;;;3.10;;
1380;SDS011;684;48.342;10.096;2022-10-16T04:41:14;6.70;;;3.53;;
1380;SDS011;684;48.342;10.096;2022-10-16T04:43:40;6.77;;;3.20;;
1380;SDS011;684;48.342;10.096;2022-10-16T04:46:07;7.40;;;2.60;;
1380;SDS011;684;48.342;10.096;2022-10-16T04:48:35;6.90;;;3.00;;
1380;SDS011;684;48.342;10.096;2022-10-16T04:51:03;5.93;;;2.90;;
1380;SDS011;684;48.342;10.096;2022-10-16T04:53:30;6.43;;;3.23;;
1380;SDS011;684;48.342;10.096;2022-10-16T04:55:56;8.60;;;3.10;;
1380;SDS011;684;48.342;10.096;2022-10-16T04:58:23;6.63;;;3.20;;
1380;SDS011;684;48.342;10.096;2022-10-16T05:00:50;11.70;;;4.00;;
1380;SDS011;684;48.342;10.096;2022-10-16T05:03:17;7.00;;;3.07;;
1380;SDS011;684;48.342;10.096;2022-10-16T05:05:44;6.50;;;3.00;;
1380;SDS011;684;48.342;10.096;2022-10-16T05:08:14;8.50;;;3.73;;
1380;SDS011;684;48.342;10.096;2022-10-16T05:10:42;6.30;;;3.03;;
1380;SDS011;684;48.342;10.096;2022-10-16T05:13:11;16.20;;;3.27;;
1380;SDS011;684;48.342;10.096;2022-10-16T05:15:37;7.60;;;3.00;;
1380;SDS011;684;48.342;10.096;2022-10-16T05:18:04;8.93;;;3.90;;
1380;SDS011;684;48.342;10.096;2022-10-16T05:20:31;6.00;;;2.80;;
1380;SDS011;684;48.342;10.096;2022-10-16T05:22:58;12.80;;;4.60;;
1380;SDS011;684;48.342;10.096;2022-10-16T05:25:26;7.70;;;2.90;;
1380;SDS011;684;48.342;10.096;2022-10-16T05:27:53;6.90;;;3.10;;
1380;SDS011;684;48.342;10.096;2022-10-16T05:30:20;7.83;;;3.30;;
1380;SDS011;684;48.342;10.096;2022-10-16T05:32:47;9.40;;;3.80;;
1380;SDS011;684;48.342;10.096;2022-10-16T05:35:14;6.17;;;3.10;;
1380;SDS011;684;48.342;10.096;2022-10-16T05:37:42;7.13;;;3.40;;
1380;SDS011;684;48.342;10.096;2022-10-16T05:40:09;6.23;;;3.20;;
1380;SDS011;684;48.342;10.096;2022-10-16T05:42:38;8.00;;;3.70;;
1380;SDS011;684;48.342;10.096;2022-10-16T05:45:05;6.60;;;4.13;;
1380;SDS011;684;48.342;10.096;2022-10-16T05:47:34;9.93;;;3.73;;
1380;SDS011;684;48.342;10.096;2022-10-16T05:50:01;10.60;;;4.47;;
1380;SDS011;684;48.342;10.096;2022-10-16T05:52:29;8.50;;;3.10;;
1380;SDS011;684;48.342;10.096;2022-10-16T05:54:55;5.80;;;2.67;;
1380;SDS011;684;48.342;10.096;2022-10-16T05:57:22;7.70;;;3.40;;
1380;SDS011;684;48.342;10.096;2022-10-16T05:59:50;5.90;;;3.03;;
1380;SDS011;684;48.342;10.096;2022-10-16T06:02:17;5.57;;;2.93;;
1380;SDS011;684;48.342;10.096;2022-10-16T06:04:44;12.93;;;3.30;;
1380;SDS011;684;48.342;10.096;2022-10-16T06:07:10;8.70;;;3.10;;
1380;SDS011;684;48.342;10.096;2022-10-16T06:09:37;6.23;;;2.80;;
1380;SDS011;684;48.342;10.096;2022-10-16T06:12:04;7.70;;;3.10;;
1380;SDS011;684;48.342;10.096;2022-10-16T06:14:32;6.77;;;3.23;;
1380;SDS011;684;48.342;10.096;2022-10-16T06:17:00;6.93;;;2.80;;
1380;SDS011;684;48.342;10.096;2022-10-16T06:19:26;5.63;;;3.00;;
1380;SDS011;684;48.342;10.096;2022-10-16T06:21:53;9.70;;;2.97;;
1380;SDS011;684;48.342;10.096;2022-10-16T06:24:22;5.50;;;2.60;;
1380;SDS011;684;48.342;10.096;2022-10-16T06:26:49;12.13;;;3.07;;
1380;SDS011;684;48.342;10.096;2022-10-16T06:29:16;7.73;;;2.47;;
1380;SDS011;684;48.342;10.096;2022-10-16T06:31:43;7.57;;;2.50;;
1380;SDS011;684;48.342;10.096;2022-10-16T06:34:11;5.30;;;2.03;;
1380;SDS011;684;48.342;10.096;2022-10-16T06:36:38;6.23;;;2.77;;
1380;SDS011;684;48.342;10.096;2022-10-16T06:39:05;4.93;;;2.33;;
1380;SDS011;684;48.342;10.096;2022-10-16T06:41:32;6.27;;;2.13;;
1380;SDS011;684;48.342;10.096;2022-10-16T06:43:59;4.67;;;2.13;;
1380;SDS011;684;48.342;10.096;2022-10-16T06:46:27;5.33;;;2.37;;
1380;SDS011;684;48.342;10.096;2022-10-16T06:48:53;5.20;;;2.30;;
1380;SDS011;684;48.342;10.096;2022-10-16T06:51:22;4.73;;;2.20;;
1380;SDS011;684;48.342;10.096;2022-10-16T06:53:50;4.97;;;2.27;;
1380;SDS011;684;48.342;10.096;2022-10-16T06:56:19;6.97;;;2.10;;
1380;SDS011;684;48.342;10.096;2022-10-16T06:58:47;4.70;;;2.10;;
1380;SDS011;684;48.342;10.096;2022-10-16T07:01:14;8.17;;;3.60;;
1380;SDS011;684;48.342;10.096;2022-10-16T07:03:43;4.97;;;1.80;;
1380;SDS011;684;48.342;10.096;2022-10-16T07:06:12;6.30;;;2.47;;
1380;SDS011;684;48.342;10.096;2022-10-16T07:08:42;5.63;;;2.40;;
1380;SDS011;684;48.342;10.096;2022-10-16T07:11:10;10.27;;;2.43;;
1380;SDS011;684;48.342;10.096;2022-10-16T07:13:38;4.37;;;2.10;;
1380;SDS011;684;48.342;10.096;2022-10-16T07:16:07;6.90;;;2.33;;
1380;SDS011;684;48.342;10.096;2022-10-16T07:18:35;5.23;;;2.33;;
1380;SDS011;684;48.342;10.096;2022-10-16T07:21:04;6.73;;;2.10;;
1380;SDS011;684;48.342;10.096;2022-10-16T07:23:31;10.07;;;2.30;;
1380;SDS011;684;48.342;10.096;2022-10-16T07:26:00;6.87;;;2.37;;
1380;SDS011;684;48.342;10.096;2022-10-16T07:28:27;4.90;;;2.60;;
1380;SDS011;684;48.342;10.096;2022-10-16T07:30:54;8.30;;;2.47;;
1380;SDS011;684;48.342;10.096;2022-10-16T07:33:21;8.37;;;2.50;;
1380;SDS011;684;48.342;10.096;2022-10-16T07:35:48;7.10;;;2.47;;
1380;SDS011;684;48.342;10.096;2022-10-16T07:38:16;11.17;;;2.93;;
1380;SDS011;684;48.342;10.096;2022-10-16T07:40:43;6.43;;;2.03;;
1380;SDS011;684;48.342;10.096;2022-10-16T07:43:12;16.50;;;3.10;;
1380;SDS011;684;48.342;10.096;2022-10-16T07:45:45;6.50;;;2.10;;
1380;SDS011;684;48.342;10.096;2022-10-16T07:48:13;7.80;;;2.00;;
1380;SDS011;684;48.342;10.096;2022-10-16T07:50:40;8.80;;;2.30;;
1380;SDS011;684;48.342;10.096;2022-10-16T07:53:07;7.20;;;1.90;;
1380;SDS011;684;48.342;10.096;2022-10-16T07:55:34;5.57;;;2.03;;
1380;SDS011;684;48.342;10.096;2022-10-16T07:58:01;5.40;;;1.60;;
1380;SDS011;684;48.342;10.096;2022-10-16T08:00:29;5.67;;;2.43;;
1380;SDS011;684;48.342;10.096;2022-10-16T08:02:56;6.40;;;1.60;;
1380;SDS011;684;48.342;10.096;2022-10-16T08:05:25;5.63;;;2.00;;
1380;SDS011;684;48.342;10.096;2022-10-16T08:07:52;5.83;;;2.20;;
1380;SDS011;684;48.342;10.096;2022-10-16T08:10:20;5.17;;;2.00;;
1380;SDS011;684;48.342;10.096;2022-10-16T08:12:48;6.23;;;2.17;;
1380;SDS011;684;48.342;10.096;2022-10-16T08:15:15;6.23;;;2.27;;
1380;SDS011;684;48.342;10.096;2022-10-16T08:17:44;6.43;;;2.50;;
1380;SDS011;684;48.342;10.096;2022-10-16T08:20:11;7.90;;;2.37;;
1380;SDS011;684;48.342;10.096;2022-10-16T08:22:38;6.43;;;2.20;;
1380;SDS011;684;48.342;10.096;2022-10-16T08:25:05;6.30;;;2.60;;
1380;SDS011;684;48.342;10.096;2022-10-16T08:27:32;8.03;;;2.70;;
1380;SDS011;684;48.342;10.096;2022-10-16T08:29:59;5.30;;;2.13;;
1380;SDS011;684;48.342;10.096;2022-10-16T08:32:26;7.77;;;2.43;;
1380;SDS011;684;48.342;10.096;2022-10-16T08:34:54;7.00;;;2.60;;
1380;SDS011;684;48.342;10.096;2022-10-16T08:37:21;4.57;;;2.20;;
1380;SDS011;684;48.342;10.096;2022-10-16T08:39:48;4.80;;;2.27;;
1380;SDS011;684;48.342;10.096;2022-10-16T08:42:24;5.53;;;2.10;;
1380;SDS011;684;48.342;10.096;2022-10-16T08:47:53;4.23;;;2.20;;
1380;SDS011;684;48.342;10.096;2022-10-16T08:50:29;6.97;;;2.10;;
1380;SDS011;684;48.342;10.096;2022-10-16T08:52:57;5.43;;;2.03;;
1380;SDS011;684;48.342;10.096;2022-10-16T08:55:28;11.20;;;2.90;;
1380;SDS011;684;48.342;10.096;2022-10-16T08:57:58;5.10;;;2.30;;
1380;SDS011;684;48.342;10.096;2022-10-16T09:00:26;4.50;;;2.27;;
1380;SDS011;684;48.342;10.096;2022-10-16T09:02:55;5.90;;;2.77;;
1380;SDS011;684;48.342;10.096;2022-10-16T09:05:45;7.10;;;2.70;;
1380;SDS011;684;48.342;10.096;2022-10-16T09:08:22;6.40;;;2.40;;
1380;SDS011;684;48.342;10.096;2022-10-16T09:10:56;5.77;;;2.70;;
1380;SDS011;684;48.342;10.096;2022-10-16T09:13:27;4.53;;;2.03;;
1380;SDS011;684;48.342;10.096;2022-10-16T09:16:01;7.47;;;3.00;;
1380;SDS011;684;48.342;10.096;2022-10-16T09:18:39;6.07;;;2.50;;
1380;SDS011;684;48.342;10.096;2022-10-16T09:21:14;5.50;;;2.00;;
1380;SDS011;684;48.342;10.096;2022-10-16T09:23:45;5.47;;;2.70;;
1380;SDS011;684;48.342;10.096;2022-10-16T09:26:13;7.33;;;2.17;;
1380;SDS011;684;48.342;10.096;2022-10-16T09:28:43;7.20;;;2.53;;
1380;SDS011;684;48.342;10.096;2022-10-16T09:31:13;4.47;;;2.10;;
1380;SDS011;684;48.342;10.096;2022-10-16T09:33:43;4.90;;;2.00;;
1380;SDS011;684;48.342;10.096;2022-10-16T09:36:14;7.57;;;2.20;;
1380;SDS011;684;48.342;10.096;2022-10-16T09:38:41;4.20;;;1.93;;
1380;SDS011;684;48.342;10.096;2022-10-16T09:41:13;4.60;;;2.10;;
1380;SDS011;684;48.342;10.096;2022-10-16T09:43:46;4.00;;;1.80;;
1380;SDS011;684;48.342;10.096;2022-10-16T09:46:24;6.60;;;1.83;;
1380;SDS011;684;48.342;10.096;2022-10-16T09:48:54;6.43;;;2.00;;
1380;SDS011;684;48.342;10.096;2022-10-16T09:51:24;5.07;;;2.17;;
1380;SDS011;684;48.342;10.096;2022-10-16T09:53:56;6.10;;;2.03;;
1380;SDS011;684;48.342;10.096;2022-10-16T09:56:26;7.47;;;2.03;;
1380;SDS011;684;48.342;10.096;2022-10-16T09:58:55;6.80;;;2.20;;
1380;SDS011;684;48.342;10.096;2022-10-16T10:01:22;6.47;;;1.93;;
1380;SDS011;684;48.342;10.096;2022-10-16T10:03:55;6.23;;;2.40;;
1380;SDS011;684;48.342;10.096;2022-10-16T10:06:28;5.47;;;2.30;;
1380;SDS011;684;48.342;10.096;2022-10-16T10:09:06;6.63;;;1.90;;
1380;SDS011;684;48.342;10.096;2022-10-16T10:11:44;4.97;;;2.37;;
1380;SDS011;684;48.342;10.096;2022-10-16T10:17:09;5.40;;;1.60;;
1380;SDS011;684;48.342;10.096;2022-10-16T10:19:38;7.73;;;2.57;;
1380;SDS011;684;48.342;10.096;2022-10-16T10:22:15;10.20;;;2.37;;
1380;SDS011;684;48.342;10.096;2022-10-16T10:28:07;3.97;;;1.80;;
1380;SDS011;684;48.342;10.096;2022-10-16T10:30:59;5.23;;;1.83;;
1380;SDS011;684;48.342;10.096;2022-10-16T10:33:36;6.20;;;1.90;;
1380;SDS011;684;48.342;10.096;2022-10-16T10:36:12;4.50;;;2.13;;
1380;SDS011;684;48.342;10.096;2022-10-16T10:38:51;5.80;;;2.57;;
1380;SDS011;684;48.342;10.096;2022-10-16T10:44:28;6.57;;;2.13;;
1380;SDS011;684;48.342;10.096;2022-10-16T10:47:19;4.47;;;2.00;;
1380;SDS011;684;48.342;10.096;2022-10-16T10:49:54;4.67;;;2.50;;
1380;SDS011;684;48.342;10.096;2022-10-16T10:52:36;5.40;;;2.40;;
1380;SDS011;684;48.342;10.096;2022-10-16T10:55:20;5.63;;;1.90;;
1380;SDS011;684;48.342;10.096;2022-10-16T10:57:55;6.77;;;2.87;;
1380;SDS011;684;48.342;10.096;2022-10-16T11:00:40;4.77;;;2.00;;
1380;SDS011;684;48.342;10.096;2022-10-16T11:03:19;4.80;;;2.37;;
1380;SDS011;684;48.342;10.096;2022-10-16T11:06:02;5.90;;;2.07;;
1380;SDS011;684;48.342;10.096;2022-10-16T11:08:34;10.00;;;3.00;;
1380;SDS011;684;48.342;10.096;2022-10-16T11:11:06;4.60;;;1.97;;
1380;SDS011;684;48.342;10.096;2022-10-16T11:13:39;7.27;;;2.50;;
1380;SDS011;684;48.342;10.096;2022-10-16T11:16:11;4.20;;;1.90;;
1380;SDS011;684;48.342;10.096;2022-10-16T11:18:45;4.70;;;2.20;;
1380;SDS011;684;48.342;10.096;2022-10-16T11:21:17;8.30;;;2.77;;
1380;SDS011;684;48.342;10.096;2022-10-16T11:23:48;9.77;;;2.77;;
1380;SDS011;684;48.342;10.096;2022-10-16T11:26:23;7.27;;;2.33;;
1380;SDS011;684;48.342;10.096;2022-10-16T11:28:53;5.40;;;2.23;;
1380;SDS011;684;48.342;10.096;2022-10-16T11:31:24;9.13;;;1.70;;
1380;SDS011;684;48.342;10.096;2022-10-16T11:34:01;4.27;;;1.83;;
1380;SDS011;684;48.342;10.096;2022-10-16T11:36:38;5.83;;;1.70;;
1380;SDS011;684;48.342;10.096;2022-10-16T11:39:11;7.20;;;2.13;;
1380;SDS011;684;48.342;10.096;2022-10-16T11:41:49;4.30;;;1.80;;
1380;SDS011;684;48.342;10.096;2022-10-16T11:44:23;6.53;;;1.60;;
1380;SDS011;684;48.342;10.096;2022-10-16T11:47:01;5.40;;;1.50;;
1380;SDS011;684;48.342;10.096;2022-10-16T11:49:35;5.80;;;2.10;;
1380;SDS011;684;48.342;10.096;2022-10-16T11:52:06;6.03;;;1.67;;
1380;SDS011;684;48.342;10.096;2022-10-16T11:54:41;4.33;;;1.10;;
1380;SDS011;684;48.342;10.096;2022-10-16T11:57:16;5.73;;;1.40;;
1380;SDS011;684;48.342;10.096;2022-10-16T11:59:47;4.20;;;1.90;;
1380;SDS011;684;48.342;10.096;2022-10-16T12:02:29;4.37;;;1.40;;
1380;SDS011;684;48.342;10.096;2022-10-16T12:05:17;4.00;;;1.50;;
1380;SDS011;684;48.342;10.096;2022-10-16T12:07:52;7.70;;;1.70;;
1380;SDS011;684;48.342;10.096;2022-10-16T12:10:28;5.50;;;1.50;;
1380;SDS011;684;48.342;10.096;2022-10-16T12:13:03;4.47;;;1.83;;
1380;SDS011;684;48.342;10.096;2022-10-16T12:15:31;6.10;;;1.47;;
1380;SDS011;684;48.342;10.096;2022-10-16T12:17:59;4.27;;;1.50;;
1380;SDS011;684;48.342;10.096;2022-10-16T12:20:27;4.67;;;1.40;;
1380;SDS011;684;48.342;10.096;2022-10-16T12:22:57;5.63;;;1.47;;
1380;SDS011;684;48.342;10.096;2022-10-16T12:25:26;5.90;;;1.50;;
1380;SDS011;684;48.342;10.096;2022-10-16T12:27:59;8.60;;;2.03;;
1380;SDS011;684;48.342;10.096;2022-10-16T12:30:30;3.80;;;1.30;;
1380;SDS011;684;48.342;10.096;2022-10-16T12:32:59;3.80;;;1.37;;
1380;SDS011;684;48.342;10.096;2022-10-16T12:35:30;3.53;;;1.20;;
1380;SDS011;684;48.342;10.096;2022-10-16T12:38:06;5.50;;;1.33;;
1380;SDS011;684;48.342;10.096;2022-10-16T12:40:39;4.80;;;0.93;;
1380;SDS011;684;48.342;10.096;2022-10-16T12:43:13;3.97;;;1.27;;
1380;SDS011;684;48.342;10.096;2022-10-16T12:45:58;4.07;;;1.20;;
1380;SDS011;684;48.342;10.096;2022-10-16T12:48:26;3.63;;;1.03;;
1380;SDS011;684;48.342;10.096;2022-10-16T12:50:53;3.60;;;1.13;;
1380;SDS011;684;48.342;10.096;2022-10-16T12:53:21;6.03;;;1.30;;
1380;SDS011;684;48.342;10.096;2022-10-16T12:56:02;3.80;;;1.30;;
1380;SDS011;684;48.342;10.096;2022-10-16T12:58:42;4.87;;;1.27;;
1380;SDS011;684;48.342;10.096;2022-10-16T13:01:20;4.83;;;1.53;;
1380;SDS011;684;48.342;10.096;2022-10-16T13:04:04;3.80;;;1.20;;
1380;SDS011;684;48.342;10.096;2022-10-16T13:06:45;5.33;;;1.17;;
1380;SDS011;684;48.342;10.096;2022-10-16T13:09:22;4.90;;;1.10;;
1380;SDS011;684;48.342;10.096;2022-10-16T13:12:06;3.47;;;1.20;;
1380;SDS011;684;48.342;10.096;2022-10-16T13:17:48;5.53;;;1.50;;
1380;SDS011;684;48.342;10.096;2022-10-16T13:20:21;4.33;;;1.30;;
1380;SDS011;684;48.342;10.096;2022-10-16T13:22:58;4.57;;;1.27;;
1380;SDS011;684;48.342;10.096;2022-10-16T13:25:37;4.63;;;1.23;;
1380;SDS011;684;48.342;10.096;2022-10-16T13:28:12;4.03;;;1.53;;
1380;SDS011;684;48.342;10.096;2022-10-16T13:30:40;5.27;;;1.57;;
1380;SDS011;684;48.342;10.096;2022-10-16T13:33:14;3.93;;;1.30;;
1380;SDS011;684;48.342;10.096;2022-10-16T13:35:47;4.10;;;1.40;;
1380;SDS011;684;48.342;10.096;2022-10-16T13:38:17;3.47;;;1.10;;
1380;SDS011;684;48.342;10.096;2022-10-16T13:40:49;4.60;;;1.30;;
1380;SDS011;684;48.342;10.096;2022-10-16T13:43:22;3.60;;;0.97;;
1380;SDS011;684;48.342;10.096;2022-10-16T13:45:52;3.37;;;1.13;;
1380;SDS011;684;48.342;10.096;2022-10-16T13:48:22;5.70;;;1.37;;
1380;SDS011;684;48.342;10.096;2022-10-16T13:51:03;5.57;;;1.23;;
1380;SDS011;684;48.342;10.096;2022-10-16T13:53:32;3.63;;;1.40;;
1380;SDS011;684;48.342;10.096;2022-10-16T13:56:00;4.90;;;2.00;;
1380;SDS011;684;48.342;10.096;2022-10-16T13:58:28;5.10;;;1.30;;
1380;SDS011;684;48.342;10.096;2022-10-16T14:00:56;6.47;;;1.30;;
1380;SDS011;684;48.342;10.096;2022-10-16T14:03:26;4.20;;;1.47;;
1380;SDS011;684;48.342;10.096;2022-10-16T14:05:54;4.40;;;1.40;;
1380;SDS011;684;48.342;10.096;2022-10-16T14:08:25;4.37;;;1.47;;
1380;SDS011;684;48.342;10.096;2022-10-16T14:10:53;5.07;;;1.33;;
1380;SDS011;684;48.342;10.096;2022-10-16T14:13:24;4.67;;;1.23;;
1380;SDS011;684;48.342;10.096;2022-10-16T14:15:56;4.40;;;1.63;;
1380;SDS011;684;48.342;10.096;2022-10-16T14:18:27;5.33;;;1.33;;
1380;SDS011;684;48.342;10.096;2022-10-16T14:20:55;4.87;;;1.40;;
1380;SDS011;684;48.342;10.096;2022-10-16T14:23:30;5.13;;;2.07;;
1380;SDS011;684;48.342;10.096;2022-10-16T14:29:00;5.47;;;1.37;;
1380;SDS011;684;48.342;10.096;2022-10-16T14:31:30;6.23;;;1.40;;
1380;SDS011;684;48.342;10.096;2022-10-16T14:33:59;4.30;;;1.30;;
1380;SDS011;684;48.342;10.096;2022-10-16T14:36:27;5.90;;;1.37;;
1380;SDS011;684;48.342;10.096;2022-10-16T14:38:59;5.20;;;1.47;;
1380;SDS011;684;48.342;10.096;2022-10-16T14:41:29;5.17;;;1.27;;
1380;SDS011;684;48.342;10.096;2022-10-16T14:43:57;3.77;;;1.10;;
1380;SDS011;684;48.342;10.096;2022-10-16T14:46:28;5.80;;;1.33;;
1380;SDS011;684;48.342;10.096;2022-10-16T14:49:02;4.20;;;1.40;;
1380;SDS011;684;48.342;10.096;2022-10-16T14:51:30;6.03;;;1.40;;
1380;SDS011;684;48.342;10.096;2022-10-16T14:53:57;7.40;;;1.40;;
1380;SDS011;684;48.342;10.096;2022-10-16T14:56:25;4.27;;;1.30;;
1380;SDS011;684;48.342;10.096;2022-10-16T14:58:55;5.07;;;1.77;;
1380;SDS011;684;48.342;10.096;2022-10-16T15:01:23;5.30;;;1.50;;
1380;SDS011;684;48.342;10.096;2022-10-16T15:03:49;6.33;;;1.60;;
1380;SDS011;684;48.342;10.096;2022-10-16T15:06:20;4.80;;;1.67;;
1380;SDS011;684;48.342;10.096;2022-10-16T15:08:47;4.60;;;1.50;;
1380;SDS011;684;48.342;10.096;2022-10-16T15:11:15;4.43;;;1.47;;
1380;SDS011;684;48.342;10.096;2022-10-16T15:13:44;4.67;;;1.47;;
1380;SDS011;684;48.342;10.096;2022-10-16T15:16:11;4.27;;;1.27;;
1380;SDS011;684;48.342;10.096;2022-10-16T15:18:40;4.53;;;1.27;;
1380;SDS011;684;48.342;10.096;2022-10-16T15:21:08;4.67;;;1.23;;
1380;SDS011;684;48.342;10.096;2022-10-16T15:23:36;7.00;;;1.37;;
1380;SDS011;684;48.342;10.096;2022-10-16T15:26:03;4.40;;;1.23;;
1380;SDS011;684;48.342;10.096;2022-10-16T15:28:31;14.90;;;2.60;;
1380;SDS011;684;48.342;10.096;2022-10-16T15:30:57;4.43;;;1.60;;
1380;SDS011;684;48.342;10.096;2022-10-16T15:33:25;4.80;;;1.50;;
1380;SDS011;684;48.342;10.096;2022-10-16T15:35:57;4.63;;;1.80;;
1380;SDS011;684;48.342;10.096;2022-10-16T15:38:24;8.60;;;1.47;;
1380;SDS011;684;48.342;10.096;2022-10-16T15:40:54;6.57;;;2.53;;
1380;SDS011;684;48.342;10.096;2022-10-16T15:43:22;6.40;;;2.10;;
1380;SDS011;684;48.342;10.096;2022-10-16T15:45:54;5.10;;;2.20;;
1380;SDS011;684;48.342;10.096;2022-10-16T15:48:26;4.80;;;2.17;;
1380;SDS011;684;48.342;10.096;2022-10-16T15:50:53;7.90;;;3.33;;